sensor_id;sensor_type;location;lat;lon;timestamp;P1;durP1;ratioP1;P2;durP2;ratioP2
20454;SDS011;10386;54.314;10.022;2023-08-06T00:00:55;6.13;;;2.27;;
20454;SDS011;10386;54.314;10.022;2023-08-06T00:03:22;6.03;;;2.17;;
20454;SDS011;10386;54.314;10.022;2023-08-06T00:05:49;7.53;;;2.50;;
20454;SDS011;10386;54.314;10.022;2023-08-06T00:08:15;7.30;;;2.73;;
20454;SDS011;10386;54.314;10.022;2023-08-06T00:10:43;4.73;;;2.43;;
20454;SDS011;10386;54.314;10.022;2023-08-06T00:13:09;6.83;;;2.30;;
20454;SDS011;10386;54.314;10.022;2023-08-06T00:15:36;5.90;;;2.80;;
20454;SDS011;10386;54.314;10.022;2023-08-06T00:18:03;4.17;;;2.03;;
20454;SDS011;10386;54.314;10.022;2023-08-06T00:20:30;2.70;;;2.37;;
20454;SDS011;10386;54.314;10.022;2023-08-06T00:22:57;2.80;;;2.30;;
20454;SDS011;10386;54.314;10.022;2023-08-06T00:25:23;5.17;;;2.53;;
20454;SDS011;10386;54.314;10.022;2023-08-06T00:27:50;3.63;;;2.30;;
20454;SDS011;10386;54.314;10.022;2023-08-06T00:30:17;6.23;;;2.60;;
20454;SDS011;10386;54.314;10.022;2023-08-06T00:32:44;5.87;;;2.57;;
20454;SDS011;10386;54.314;10.022;2023-08-06T00:35:11;4.33;;;2.73;;
20454;SDS011;10386;54.314;10.022;2023-08-06T00:37:40;5.47;;;2.20;;
20454;SDS011;10386;54.314;10.022;2023-08-06T00:40:06;6.87;;;2.77;;
20454;SDS011;10386;54.314;10.022;2023-08-06T00:42:34;6.27;;;2.20;;
20454;SDS011;10386;54.314;10.022;2023-08-06T00:45:01;4.40;;;2.53;;
20454;SDS011;10386;54.314;10.022;2023-08-06T00:47:29;5.37;;;2.80;;
20454;SDS011;10386;54.314;10.022;2023-08-06T00:49:56;8.93;;;2.70;;
20454;SDS011;10386;54.314;10.022;2023-08-06T00:52:23;3.57;;;2.40;;
20454;SDS011;10386;54.314;10.022;2023-08-06T00:54:50;4.73;;;2.60;;
20454;SDS011;10386;54.314;10.022;2023-08-06T00:57:17;4.10;;;2.50;;
20454;SDS011;10386;54.314;10.022;2023-08-06T00:59:44;4.87;;;2.47;;
20454;SDS011;10386;54.314;10.022;2023-08-06T01:02:11;5.23;;;2.73;;
20454;SDS011;10386;54.314;10.022;2023-08-06T01:04:39;6.00;;;2.67;;
20454;SDS011;10386;54.314;10.022;2023-08-06T01:10:29;4.93;;;2.63;;
20454;SDS011;10386;54.314;10.022;2023-08-06T01:13:24;7.57;;;2.80;;
20454;SDS011;10386;54.314;10.022;2023-08-06T01:15:57;10.97;;;2.70;;
20454;SDS011;10386;54.314;10.022;2023-08-06T01:18:26;6.83;;;2.67;;
20454;SDS011;10386;54.314;10.022;2023-08-06T01:20:52;7.93;;;2.97;;
20454;SDS011;10386;54.314;10.022;2023-08-06T01:23:19;5.80;;;2.70;;
20454;SDS011;10386;54.314;10.022;2023-08-06T01:26:00;9.90;;;2.87;;
20454;SDS011;10386;54.314;10.022;2023-08-06T01:31:00;6.40;;;3.20;;
20454;SDS011;10386;54.314;10.022;2023-08-06T01:33:30;7.47;;;3.50;;
20454;SDS011;10386;54.314;10.022;2023-08-06T01:36:00;4.37;;;3.07;;
20454;SDS011;10386;54.314;10.022;2023-08-06T01:38:28;5.47;;;3.00;;
20454;SDS011;10386;54.314;10.022;2023-08-06T01:40:55;4.07;;;2.80;;
20454;SDS011;10386;54.314;10.022;2023-08-06T01:43:22;7.93;;;3.20;;
20454;SDS011;10386;54.314;10.022;2023-08-06T01:45:49;6.03;;;3.03;;
20454;SDS011;10386;54.314;10.022;2023-08-06T01:48:16;5.03;;;2.80;;
20454;SDS011;10386;54.314;10.022;2023-08-06T01:50:42;4.57;;;3.20;;
20454;SDS011;10386;54.314;10.022;2023-08-06T01:53:09;4.33;;;2.70;;
20454;SDS011;10386;54.314;10.022;2023-08-06T01:55:37;11.20;;;3.30;;
20454;SDS011;10386;54.314;10.022;2023-08-06T01:58:03;3.83;;;2.83;;
20454;SDS011;10386;54.314;10.022;2023-08-06T02:00:30;6.43;;;3.13;;
20454;SDS011;10386;54.314;10.022;2023-08-06T02:02:57;6.47;;;3.00;;
20454;SDS011;10386;54.314;10.022;2023-08-06T02:05:23;6.80;;;3.10;;
20454;SDS011;10386;54.314;10.022;2023-08-06T02:07:50;7.37;;;3.60;;
20454;SDS011;10386;54.314;10.022;2023-08-06T02:10:17;5.17;;;3.27;;
20454;SDS011;10386;54.314;10.022;2023-08-06T02:12:44;7.07;;;3.50;;
20454;SDS011;10386;54.314;10.022;2023-08-06T02:15:10;9.77;;;3.83;;
20454;SDS011;10386;54.314;10.022;2023-08-06T02:17:37;7.57;;;2.83;;
20454;SDS011;10386;54.314;10.022;2023-08-06T02:20:07;4.53;;;3.30;;
20454;SDS011;10386;54.314;10.022;2023-08-06T02:22:34;5.80;;;3.20;;
20454;SDS011;10386;54.314;10.022;2023-08-06T02:25:01;4.17;;;3.10;;
20454;SDS011;10386;54.314;10.022;2023-08-06T02:27:28;4.93;;;3.10;;
20454;SDS011;10386;54.314;10.022;2023-08-06T02:29:55;7.10;;;3.20;;
20454;SDS011;10386;54.314;10.022;2023-08-06T02:32:22;9.10;;;3.50;;
20454;SDS011;10386;54.314;10.022;2023-08-06T02:34:50;13.57;;;3.80;;
20454;SDS011;10386;54.314;10.022;2023-08-06T02:37:17;7.47;;;3.57;;
20454;SDS011;10386;54.314;10.022;2023-08-06T02:39:43;6.53;;;3.33;;
20454;SDS011;10386;54.314;10.022;2023-08-06T02:42:10;7.87;;;3.20;;
20454;SDS011;10386;54.314;10.022;2023-08-06T02:44:37;5.17;;;3.43;;
20454;SDS011;10386;54.314;10.022;2023-08-06T02:47:04;9.47;;;3.47;;
20454;SDS011;10386;54.314;10.022;2023-08-06T02:49:31;9.70;;;3.40;;
20454;SDS011;10386;54.314;10.022;2023-08-06T02:51:57;9.70;;;3.77;;
20454;SDS011;10386;54.314;10.022;2023-08-06T02:54:24;7.70;;;3.33;;
20454;SDS011;10386;54.314;10.022;2023-08-06T02:56:51;5.37;;;3.27;;
20454;SDS011;10386;54.314;10.022;2023-08-06T02:59:17;5.83;;;3.40;;
20454;SDS011;10386;54.314;10.022;2023-08-06T03:01:44;6.70;;;3.67;;
20454;SDS011;10386;54.314;10.022;2023-08-06T03:04:11;8.80;;;3.63;;
20454;SDS011;10386;54.314;10.022;2023-08-06T03:06:38;8.40;;;3.93;;
20454;SDS011;10386;54.314;10.022;2023-08-06T03:09:04;4.87;;;3.20;;
20454;SDS011;10386;54.314;10.022;2023-08-06T03:11:31;7.00;;;3.70;;
20454;SDS011;10386;54.314;10.022;2023-08-06T03:13:58;4.67;;;3.20;;
20454;SDS011;10386;54.314;10.022;2023-08-06T03:16:25;5.97;;;3.43;;
20454;SDS011;10386;54.314;10.022;2023-08-06T03:18:51;4.63;;;3.20;;
20454;SDS011;10386;54.314;10.022;2023-08-06T03:21:18;10.43;;;3.63;;
20454;SDS011;10386;54.314;10.022;2023-08-06T03:23:46;8.57;;;3.70;;
20454;SDS011;10386;54.314;10.022;2023-08-06T03:26:14;8.07;;;3.40;;
20454;SDS011;10386;54.314;10.022;2023-08-06T03:28:41;17.20;;;3.60;;
20454;SDS011;10386;54.314;10.022;2023-08-06T03:31:08;9.10;;;3.60;;
20454;SDS011;10386;54.314;10.022;2023-08-06T03:33:34;6.57;;;3.63;;
20454;SDS011;10386;54.314;10.022;2023-08-06T03:36:01;10.97;;;4.03;;
20454;SDS011;10386;54.314;10.022;2023-08-06T03:38:28;10.27;;;3.83;;
20454;SDS011;10386;54.314;10.022;2023-08-06T03:40:55;11.93;;;3.97;;
20454;SDS011;10386;54.314;10.022;2023-08-06T03:43:22;6.27;;;3.70;;
20454;SDS011;10386;54.314;10.022;2023-08-06T03:45:49;7.07;;;3.60;;
20454;SDS011;10386;54.314;10.022;2023-08-06T03:48:16;8.60;;;4.00;;
20454;SDS011;10386;54.314;10.022;2023-08-06T03:50:42;5.87;;;3.50;;
20454;SDS011;10386;54.314;10.022;2023-08-06T03:53:09;8.33;;;3.80;;
20454;SDS011;10386;54.314;10.022;2023-08-06T03:55:38;5.30;;;3.60;;
20454;SDS011;10386;54.314;10.022;2023-08-06T03:58:04;7.97;;;3.90;;
20454;SDS011;10386;54.314;10.022;2023-08-06T04:00:31;6.83;;;3.43;;
20454;SDS011;10386;54.314;10.022;2023-08-06T04:02:58;8.83;;;4.00;;
20454;SDS011;10386;54.314;10.022;2023-08-06T04:05:25;8.13;;;4.03;;
20454;SDS011;10386;54.314;10.022;2023-08-06T04:07:51;8.13;;;4.00;;
20454;SDS011;10386;54.314;10.022;2023-08-06T04:10:18;7.17;;;3.67;;
20454;SDS011;10386;54.314;10.022;2023-08-06T04:12:45;10.87;;;4.17;;
20454;SDS011;10386;54.314;10.022;2023-08-06T04:15:11;9.17;;;4.20;;
20454;SDS011;10386;54.314;10.022;2023-08-06T04:17:38;7.53;;;4.00;;
20454;SDS011;10386;54.314;10.022;2023-08-06T04:20:05;8.57;;;4.20;;
20454;SDS011;10386;54.314;10.022;2023-08-06T04:22:32;9.50;;;4.37;;
20454;SDS011;10386;54.314;10.022;2023-08-06T04:24:59;9.80;;;4.17;;
20454;SDS011;10386;54.314;10.022;2023-08-06T04:27:26;10.00;;;4.40;;
20454;SDS011;10386;54.314;10.022;2023-08-06T04:29:53;6.00;;;3.90;;
20454;SDS011;10386;54.314;10.022;2023-08-06T04:32:19;8.43;;;4.73;;
20454;SDS011;10386;54.314;10.022;2023-08-06T04:34:46;8.97;;;4.13;;
20454;SDS011;10386;54.314;10.022;2023-08-06T04:37:14;9.27;;;4.17;;
20454;SDS011;10386;54.314;10.022;2023-08-06T04:39:41;11.73;;;4.20;;
20454;SDS011;10386;54.314;10.022;2023-08-06T04:42:07;7.73;;;4.50;;
20454;SDS011;10386;54.314;10.022;2023-08-06T04:44:34;8.77;;;3.80;;
20454;SDS011;10386;54.314;10.022;2023-08-06T04:47:01;8.50;;;4.60;;
20454;SDS011;10386;54.314;10.022;2023-08-06T04:49:28;10.77;;;4.60;;
20454;SDS011;10386;54.314;10.022;2023-08-06T04:51:54;13.50;;;4.20;;
20454;SDS011;10386;54.314;10.022;2023-08-06T04:54:21;8.73;;;4.00;;
20454;SDS011;10386;54.314;10.022;2023-08-06T04:56:48;10.37;;;3.97;;
20454;SDS011;10386;54.314;10.022;2023-08-06T04:59:15;8.03;;;3.70;;
20454;SDS011;10386;54.314;10.022;2023-08-06T05:01:41;8.30;;;4.10;;
20454;SDS011;10386;54.314;10.022;2023-08-06T05:04:08;7.00;;;4.60;;
20454;SDS011;10386;54.314;10.022;2023-08-06T05:06:35;7.45;;;4.22;;
20454;SDS011;10386;54.314;10.022;2023-08-06T05:09:04;7.33;;;4.17;;
20454;SDS011;10386;54.314;10.022;2023-08-06T05:11:32;7.43;;;4.13;;
20454;SDS011;10386;54.314;10.022;2023-08-06T05:13:59;8.60;;;3.37;;
20454;SDS011;10386;54.314;10.022;2023-08-06T05:16:26;6.17;;;3.93;;
20454;SDS011;10386;54.314;10.022;2023-08-06T05:18:53;10.00;;;4.00;;
20454;SDS011;10386;54.314;10.022;2023-08-06T05:21:19;9.03;;;3.70;;
20454;SDS011;10386;54.314;10.022;2023-08-06T05:23:46;7.90;;;3.73;;
20454;SDS011;10386;54.314;10.022;2023-08-06T05:26:13;12.77;;;4.30;;
20454;SDS011;10386;54.314;10.022;2023-08-06T05:28:42;7.43;;;3.93;;
20454;SDS011;10386;54.314;10.022;2023-08-06T05:31:09;9.47;;;3.97;;
20454;SDS011;10386;54.314;10.022;2023-08-06T05:33:36;11.33;;;3.93;;
20454;SDS011;10386;54.314;10.022;2023-08-06T05:36:03;11.97;;;4.57;;
20454;SDS011;10386;54.314;10.022;2023-08-06T05:38:30;7.33;;;4.17;;
20454;SDS011;10386;54.314;10.022;2023-08-06T05:40:56;5.50;;;4.13;;
20454;SDS011;10386;54.314;10.022;2023-08-06T05:43:23;10.10;;;3.90;;
20454;SDS011;10386;54.314;10.022;2023-08-06T05:45:50;8.73;;;4.10;;
20454;SDS011;10386;54.314;10.022;2023-08-06T05:48:17;5.40;;;3.63;;
20454;SDS011;10386;54.314;10.022;2023-08-06T05:50:44;7.37;;;3.43;;
20454;SDS011;10386;54.314;10.022;2023-08-06T05:53:10;9.47;;;3.67;;
20454;SDS011;10386;54.314;10.022;2023-08-06T05:55:38;5.70;;;3.57;;
20454;SDS011;10386;54.314;10.022;2023-08-06T05:58:05;5.33;;;3.67;;
20454;SDS011;10386;54.314;10.022;2023-08-06T06:00:32;7.60;;;3.80;;
20454;SDS011;10386;54.314;10.022;2023-08-06T06:02:59;12.43;;;4.07;;
20454;SDS011;10386;54.314;10.022;2023-08-06T06:05:26;4.60;;;3.93;;
20454;SDS011;10386;54.314;10.022;2023-08-06T06:07:52;8.07;;;3.77;;
20454;SDS011;10386;54.314;10.022;2023-08-06T06:10:19;6.40;;;3.43;;
20454;SDS011;10386;54.314;10.022;2023-08-06T06:12:46;6.90;;;3.80;;
20454;SDS011;10386;54.314;10.022;2023-08-06T06:15:13;6.97;;;3.50;;
20454;SDS011;10386;54.314;10.022;2023-08-06T06:17:39;6.57;;;3.97;;
20454;SDS011;10386;54.314;10.022;2023-08-06T06:20:06;7.80;;;3.30;;
20454;SDS011;10386;54.314;10.022;2023-08-06T06:22:33;5.70;;;3.33;;
20454;SDS011;10386;54.314;10.022;2023-08-06T06:25:00;7.97;;;3.27;;
20454;SDS011;10386;54.314;10.022;2023-08-06T06:27:27;6.03;;;3.40;;
20454;SDS011;10386;54.314;10.022;2023-08-06T06:29:54;9.17;;;3.30;;
20454;SDS011;10386;54.314;10.022;2023-08-06T06:32:21;9.27;;;3.30;;
20454;SDS011;10386;54.314;10.022;2023-08-06T06:34:48;7.63;;;3.27;;
20454;SDS011;10386;54.314;10.022;2023-08-06T06:37:15;9.03;;;3.43;;
20454;SDS011;10386;54.314;10.022;2023-08-06T06:39:42;8.87;;;4.10;;
20454;SDS011;10386;54.314;10.022;2023-08-06T06:42:09;5.83;;;3.50;;
20454;SDS011;10386;54.314;10.022;2023-08-06T06:44:35;6.47;;;3.60;;
20454;SDS011;10386;54.314;10.022;2023-08-06T06:47:02;6.47;;;3.40;;
20454;SDS011;10386;54.314;10.022;2023-08-06T06:49:29;8.97;;;3.70;;
20454;SDS011;10386;54.314;10.022;2023-08-06T06:51:56;8.27;;;3.30;;
20454;SDS011;10386;54.314;10.022;2023-08-06T06:54:23;10.13;;;3.50;;
20454;SDS011;10386;54.314;10.022;2023-08-06T06:56:50;11.27;;;3.53;;
20454;SDS011;10386;54.314;10.022;2023-08-06T06:59:16;5.93;;;4.00;;
20454;SDS011;10386;54.314;10.022;2023-08-06T07:01:43;7.43;;;3.70;;
20454;SDS011;10386;54.314;10.022;2023-08-06T07:04:10;7.07;;;3.37;;
20454;SDS011;10386;54.314;10.022;2023-08-06T07:06:37;9.23;;;3.30;;
20454;SDS011;10386;54.314;10.022;2023-08-06T07:09:03;4.00;;;3.00;;
20454;SDS011;10386;54.314;10.022;2023-08-06T07:11:34;5.97;;;3.40;;
20454;SDS011;10386;54.314;10.022;2023-08-06T07:14:01;8.57;;;3.20;;
20454;SDS011;10386;54.314;10.022;2023-08-06T07:16:28;5.37;;;3.10;;
20454;SDS011;10386;54.314;10.022;2023-08-06T07:18:55;8.30;;;3.33;;
20454;SDS011;10386;54.314;10.022;2023-08-06T07:21:22;4.60;;;2.80;;
20454;SDS011;10386;54.314;10.022;2023-08-06T07:23:49;5.70;;;3.20;;
20454;SDS011;10386;54.314;10.022;2023-08-06T07:26:16;9.40;;;3.73;;
20454;SDS011;10386;54.314;10.022;2023-08-06T07:28:44;5.07;;;3.37;;
20454;SDS011;10386;54.314;10.022;2023-08-06T07:31:11;5.83;;;2.90;;
20454;SDS011;10386;54.314;10.022;2023-08-06T07:33:38;6.00;;;2.97;;
20454;SDS011;10386;54.314;10.022;2023-08-06T07:36:12;5.82;;;2.72;;
20454;SDS011;10386;54.314;10.022;2023-08-06T07:38:40;3.53;;;2.77;;
20454;SDS011;10386;54.314;10.022;2023-08-06T07:41:08;8.07;;;3.33;;
20454;SDS011;10386;54.314;10.022;2023-08-06T07:43:35;4.77;;;2.63;;
20454;SDS011;10386;54.314;10.022;2023-08-06T07:46:02;6.38;;;3.05;;
20454;SDS011;10386;54.314;10.022;2023-08-06T07:48:29;4.87;;;2.90;;
20454;SDS011;10386;54.314;10.022;2023-08-06T07:50:56;6.43;;;3.20;;
20454;SDS011;10386;54.314;10.022;2023-08-06T07:53:24;8.90;;;3.60;;
20454;SDS011;10386;54.314;10.022;2023-08-06T07:55:56;4.17;;;2.63;;
20454;SDS011;10386;54.314;10.022;2023-08-06T07:58:24;6.10;;;2.67;;
20454;SDS011;10386;54.314;10.022;2023-08-06T08:00:51;8.47;;;3.17;;
20454;SDS011;10386;54.314;10.022;2023-08-06T08:03:18;5.13;;;2.30;;
20454;SDS011;10386;54.314;10.022;2023-08-06T08:05:46;6.53;;;2.43;;
20454;SDS011;10386;54.314;10.022;2023-08-06T08:08:13;7.37;;;3.50;;
20454;SDS011;10386;54.314;10.022;2023-08-06T08:10:40;9.00;;;2.93;;
20454;SDS011;10386;54.314;10.022;2023-08-06T08:13:07;4.80;;;2.80;;
20454;SDS011;10386;54.314;10.022;2023-08-06T08:15:34;5.03;;;2.40;;
20454;SDS011;10386;54.314;10.022;2023-08-06T08:18:00;7.43;;;2.70;;
20454;SDS011;10386;54.314;10.022;2023-08-06T08:20:27;4.43;;;2.50;;
20454;SDS011;10386;54.314;10.022;2023-08-06T08:22:59;7.03;;;2.80;;
20454;SDS011;10386;54.314;10.022;2023-08-06T08:25:27;5.00;;;2.23;;
20454;SDS011;10386;54.314;10.022;2023-08-06T08:27:57;14.43;;;4.30;;
20454;SDS011;10386;54.314;10.022;2023-08-06T08:30:24;5.27;;;2.47;;
20454;SDS011;10386;54.314;10.022;2023-08-06T08:32:52;5.80;;;2.57;;
20454;SDS011;10386;54.314;10.022;2023-08-06T08:35:19;4.47;;;2.20;;
20454;SDS011;10386;54.314;10.022;2023-08-06T08:37:46;4.80;;;2.00;;
20454;SDS011;10386;54.314;10.022;2023-08-06T08:40:14;4.43;;;2.20;;
20454;SDS011;10386;54.314;10.022;2023-08-06T08:42:41;6.53;;;2.85;;
20454;SDS011;10386;54.314;10.022;2023-08-06T08:45:12;2.15;;;1.92;;
20454;SDS011;10386;54.314;10.022;2023-08-06T08:47:41;4.47;;;2.00;;
20454;SDS011;10386;54.314;10.022;2023-08-06T08:50:13;2.20;;;1.95;;
20454;SDS011;10386;54.314;10.022;2023-08-06T08:52:41;7.22;;;2.35;;
20454;SDS011;10386;54.314;10.022;2023-08-06T08:55:12;10.55;;;3.30;;
20454;SDS011;10386;54.314;10.022;2023-08-06T08:57:41;4.93;;;2.00;;
20454;SDS011;10386;54.314;10.022;2023-08-06T09:00:09;4.78;;;2.10;;
20454;SDS011;10386;54.314;10.022;2023-08-06T09:02:36;3.70;;;1.95;;
20454;SDS011;10386;54.314;10.022;2023-08-06T09:05:08;4.93;;;2.45;;
20454;SDS011;10386;54.314;10.022;2023-08-06T09:07:38;4.85;;;2.03;;
20454;SDS011;10386;54.314;10.022;2023-08-06T09:10:10;9.05;;;2.92;;
20454;SDS011;10386;54.314;10.022;2023-08-06T09:12:39;2.58;;;1.60;;
20454;SDS011;10386;54.314;10.022;2023-08-06T09:15:08;7.47;;;2.60;;
20454;SDS011;10386;54.314;10.022;2023-08-06T09:17:35;5.78;;;2.22;;
20454;SDS011;10386;54.314;10.022;2023-08-06T09:20:12;1.95;;;1.70;;
20454;SDS011;10386;54.314;10.022;2023-08-06T09:22:39;4.25;;;2.00;;
20454;SDS011;10386;54.314;10.022;2023-08-06T09:25:07;3.50;;;1.88;;
20454;SDS011;10386;54.314;10.022;2023-08-06T09:27:36;3.15;;;1.65;;
20454;SDS011;10386;54.314;10.022;2023-08-06T09:30:06;4.82;;;1.50;;
20454;SDS011;10386;54.314;10.022;2023-08-06T09:32:46;5.60;;;1.98;;
20454;SDS011;10386;54.314;10.022;2023-08-06T09:35:17;5.47;;;2.15;;
20454;SDS011;10386;54.314;10.022;2023-08-06T09:37:45;3.00;;;1.92;;
20454;SDS011;10386;54.314;10.022;2023-08-06T09:40:24;2.88;;;1.85;;
20454;SDS011;10386;54.314;10.022;2023-08-06T09:42:52;3.83;;;1.80;;
20454;SDS011;10386;54.314;10.022;2023-08-06T09:45:20;5.63;;;1.98;;
20454;SDS011;10386;54.314;10.022;2023-08-06T09:47:49;3.70;;;1.90;;
20454;SDS011;10386;54.314;10.022;2023-08-06T09:50:17;4.40;;;2.22;;
20454;SDS011;10386;54.314;10.022;2023-08-06T09:52:47;5.93;;;3.08;;
20454;SDS011;10386;54.314;10.022;2023-08-06T09:55:17;2.80;;;2.10;;
20454;SDS011;10386;54.314;10.022;2023-08-06T09:57:48;2.80;;;1.88;;
20454;SDS011;10386;54.314;10.022;2023-08-06T10:00:16;5.70;;;2.30;;
20454;SDS011;10386;54.314;10.022;2023-08-06T10:02:44;3.95;;;1.65;;
20454;SDS011;10386;54.314;10.022;2023-08-06T10:05:12;2.97;;;2.03;;
20454;SDS011;10386;54.314;10.022;2023-08-06T10:07:39;4.90;;;1.90;;
20454;SDS011;10386;54.314;10.022;2023-08-06T10:10:06;5.28;;;2.35;;
20454;SDS011;10386;54.314;10.022;2023-08-06T10:12:55;9.40;;;2.67;;
20454;SDS011;10386;54.314;10.022;2023-08-06T10:15:25;6.30;;;2.10;;
20454;SDS011;10386;54.314;10.022;2023-08-06T10:17:54;3.25;;;2.00;;
20454;SDS011;10386;54.314;10.022;2023-08-06T10:20:23;5.28;;;2.47;;
20454;SDS011;10386;54.314;10.022;2023-08-06T10:23:05;2.30;;;2.08;;
20454;SDS011;10386;54.314;10.022;2023-08-06T10:25:34;3.25;;;1.92;;
20454;SDS011;10386;54.314;10.022;2023-08-06T10:28:09;6.28;;;2.35;;
20454;SDS011;10386;54.314;10.022;2023-08-06T10:30:41;5.90;;;2.33;;
20454;SDS011;10386;54.314;10.022;2023-08-06T10:33:11;3.65;;;1.85;;
20454;SDS011;10386;54.314;10.022;2023-08-06T10:35:45;4.40;;;2.55;;
20454;SDS011;10386;54.314;10.022;2023-08-06T10:38:18;5.32;;;1.92;;
20454;SDS011;10386;54.314;10.022;2023-08-06T10:40:49;3.05;;;2.00;;
20454;SDS011;10386;54.314;10.022;2023-08-06T10:43:31;9.52;;;3.30;;
20454;SDS011;10386;54.314;10.022;2023-08-06T10:46:01;12.00;;;3.20;;
20454;SDS011;10386;54.314;10.022;2023-08-06T10:51:04;8.77;;;3.03;;
20454;SDS011;10386;54.314;10.022;2023-08-06T10:53:33;4.45;;;2.15;;
20454;SDS011;10386;54.314;10.022;2023-08-06T10:56:01;11.15;;;3.17;;
20454;SDS011;10386;54.314;10.022;2023-08-06T10:58:32;5.53;;;2.72;;
20454;SDS011;10386;54.314;10.022;2023-08-06T11:00:59;4.97;;;2.78;;
20454;SDS011;10386;54.314;10.022;2023-08-06T11:03:27;3.38;;;2.03;;
20454;SDS011;10386;54.314;10.022;2023-08-06T11:05:54;17.67;;;6.53;;
20454;SDS011;10386;54.314;10.022;2023-08-06T11:08:25;4.88;;;2.80;;
20454;SDS011;10386;54.314;10.022;2023-08-06T11:10:53;4.28;;;1.77;;
20454;SDS011;10386;54.314;10.022;2023-08-06T11:13:29;3.45;;;1.92;;
20454;SDS011;10386;54.314;10.022;2023-08-06T11:15:57;3.85;;;1.80;;
20454;SDS011;10386;54.314;10.022;2023-08-06T11:18:24;3.35;;;2.03;;
20454;SDS011;10386;54.314;10.022;2023-08-06T11:20:51;2.50;;;1.85;;
20454;SDS011;10386;54.314;10.022;2023-08-06T11:23:18;2.45;;;1.70;;
20454;SDS011;10386;54.314;10.022;2023-08-06T11:25:45;2.67;;;1.70;;
20454;SDS011;10386;54.314;10.022;2023-08-06T11:28:12;5.20;;;2.10;;
20454;SDS011;10386;54.314;10.022;2023-08-06T11:30:40;7.25;;;2.83;;
20454;SDS011;10386;54.314;10.022;2023-08-06T11:33:07;3.70;;;1.90;;
20454;SDS011;10386;54.314;10.022;2023-08-06T11:35:36;2.88;;;1.73;;
20454;SDS011;10386;54.314;10.022;2023-08-06T11:38:04;6.03;;;2.47;;
20454;SDS011;10386;54.314;10.022;2023-08-06T11:40:31;3.20;;;2.00;;
20454;SDS011;10386;54.314;10.022;2023-08-06T11:42:59;4.28;;;2.30;;
20454;SDS011;10386;54.314;10.022;2023-08-06T11:45:26;5.85;;;2.22;;
20454;SDS011;10386;54.314;10.022;2023-08-06T11:47:53;5.68;;;2.17;;
20454;SDS011;10386;54.314;10.022;2023-08-06T11:50:26;2.40;;;1.95;;
20454;SDS011;10386;54.314;10.022;2023-08-06T11:52:58;4.45;;;2.45;;
20454;SDS011;10386;54.314;10.022;2023-08-06T11:55:27;8.20;;;2.50;;
20454;SDS011;10386;54.314;10.022;2023-08-06T11:57:55;4.25;;;2.05;;
20454;SDS011;10386;54.314;10.022;2023-08-06T12:00:22;2.63;;;1.67;;
20454;SDS011;10386;54.314;10.022;2023-08-06T12:02:51;5.28;;;2.08;;
20454;SDS011;10386;54.314;10.022;2023-08-06T12:05:19;4.50;;;1.88;;
20454;SDS011;10386;54.314;10.022;2023-08-06T12:07:48;1.80;;;1.70;;
20454;SDS011;10386;54.314;10.022;2023-08-06T12:10:16;4.35;;;2.00;;
20454;SDS011;10386;54.314;10.022;2023-08-06T12:12:44;4.32;;;1.85;;
20454;SDS011;10386;54.314;10.022;2023-08-06T12:15:10;2.95;;;1.90;;
20454;SDS011;10386;54.314;10.022;2023-08-06T12:17:37;5.28;;;2.22;;
20454;SDS011;10386;54.314;10.022;2023-08-06T12:20:05;3.63;;;2.08;;
20454;SDS011;10386;54.314;10.022;2023-08-06T12:22:34;5.30;;;2.30;;
20454;SDS011;10386;54.314;10.022;2023-08-06T12:25:02;3.15;;;2.10;;
20454;SDS011;10386;54.314;10.022;2023-08-06T12:27:30;5.55;;;2.00;;
20454;SDS011;10386;54.314;10.022;2023-08-06T12:29:57;3.50;;;2.03;;
20454;SDS011;10386;54.314;10.022;2023-08-06T12:32:23;3.40;;;1.90;;
20454;SDS011;10386;54.314;10.022;2023-08-06T12:34:50;2.45;;;1.90;;
20454;SDS011;10386;54.314;10.022;2023-08-06T12:37:19;3.08;;;2.00;;
20454;SDS011;10386;54.314;10.022;2023-08-06T12:39:46;2.70;;;2.30;;
20454;SDS011;10386;54.314;10.022;2023-08-06T12:42:13;5.13;;;1.95;;
20454;SDS011;10386;54.314;10.022;2023-08-06T12:44:40;6.20;;;2.17;;
20454;SDS011;10386;54.314;10.022;2023-08-06T12:47:07;2.60;;;2.20;;
20454;SDS011;10386;54.314;10.022;2023-08-06T12:49:34;7.30;;;2.83;;
20454;SDS011;10386;54.314;10.022;2023-08-06T12:52:02;2.03;;;1.90;;
20454;SDS011;10386;54.314;10.022;2023-08-06T12:54:31;2.80;;;2.10;;
20454;SDS011;10386;54.314;10.022;2023-08-06T12:57:03;8.65;;;2.50;;
20454;SDS011;10386;54.314;10.022;2023-08-06T12:59:31;4.25;;;2.22;;
20454;SDS011;10386;54.314;10.022;2023-08-06T13:01:59;8.05;;;2.50;;
20454;SDS011;10386;54.314;10.022;2023-08-06T13:04:26;7.88;;;2.03;;
20454;SDS011;10386;54.314;10.022;2023-08-06T13:06:54;8.18;;;2.88;;
20454;SDS011;10386;54.314;10.022;2023-08-06T13:09:21;4.28;;;2.53;;
20454;SDS011;10386;54.314;10.022;2023-08-06T13:11:48;3.03;;;2.10;;
20454;SDS011;10386;54.314;10.022;2023-08-06T13:14:16;4.10;;;2.20;;
20454;SDS011;10386;54.314;10.022;2023-08-06T13:16:43;8.05;;;2.50;;
20454;SDS011;10386;54.314;10.022;2023-08-06T13:19:11;7.20;;;2.22;;
20454;SDS011;10386;54.314;10.022;2023-08-06T13:24:10;3.65;;;1.98;;
20454;SDS011;10386;54.314;10.022;2023-08-06T13:26:38;8.30;;;2.72;;
20454;SDS011;10386;54.314;10.022;2023-08-06T13:29:05;10.38;;;3.05;;
20454;SDS011;10386;54.314;10.022;2023-08-06T13:31:33;2.75;;;1.98;;
20454;SDS011;10386;54.314;10.022;2023-08-06T13:34:00;6.28;;;2.50;;
20454;SDS011;10386;54.314;10.022;2023-08-06T13:36:27;8.15;;;2.55;;
20454;SDS011;10386;54.314;10.022;2023-08-06T13:38:55;11.43;;;3.33;;
20454;SDS011;10386;54.314;10.022;2023-08-06T13:41:23;3.60;;;2.00;;
20454;SDS011;10386;54.314;10.022;2023-08-06T13:43:51;7.07;;;2.45;;
20454;SDS011;10386;54.314;10.022;2023-08-06T13:46:18;18.17;;;4.03;;
20454;SDS011;10386;54.314;10.022;2023-08-06T13:48:47;5.68;;;3.03;;
20454;SDS011;10386;54.314;10.022;2023-08-06T13:51:17;6.32;;;2.55;;
20454;SDS011;10386;54.314;10.022;2023-08-06T13:53:44;7.25;;;2.90;;
20454;SDS011;10386;54.314;10.022;2023-08-06T13:56:12;5.15;;;2.20;;
20454;SDS011;10386;54.314;10.022;2023-08-06T13:58:41;10.10;;;3.33;;
20454;SDS011;10386;54.314;10.022;2023-08-06T14:01:09;7.60;;;3.42;;
20454;SDS011;10386;54.314;10.022;2023-08-06T14:03:37;8.27;;;3.53;;
20454;SDS011;10386;54.314;10.022;2023-08-06T14:06:04;5.30;;;2.08;;
20454;SDS011;10386;54.314;10.022;2023-08-06T14:08:31;3.08;;;2.13;;
20454;SDS011;10386;54.314;10.022;2023-08-06T14:10:58;4.57;;;2.25;;
20454;SDS011;10386;54.314;10.022;2023-08-06T14:13:25;4.03;;;2.47;;
20454;SDS011;10386;54.314;10.022;2023-08-06T14:15:52;3.67;;;2.28;;
20454;SDS011;10386;54.314;10.022;2023-08-06T14:18:19;2.97;;;2.20;;
20454;SDS011;10386;54.314;10.022;2023-08-06T14:20:46;3.15;;;2.03;;
20454;SDS011;10386;54.314;10.022;2023-08-06T14:23:13;3.67;;;2.08;;
20454;SDS011;10386;54.314;10.022;2023-08-06T14:25:40;9.63;;;3.38;;
20454;SDS011;10386;54.314;10.022;2023-08-06T14:28:06;9.00;;;3.10;;
20454;SDS011;10386;54.314;10.022;2023-08-06T14:30:34;5.43;;;2.33;;
20454;SDS011;10386;54.314;10.022;2023-08-06T14:33:01;4.13;;;2.03;;
20454;SDS011;10386;54.314;10.022;2023-08-06T14:35:49;5.35;;;2.80;;
20454;SDS011;10386;54.314;10.022;2023-08-06T14:38:16;3.47;;;2.25;;
20454;SDS011;10386;54.314;10.022;2023-08-06T14:40:43;2.95;;;2.13;;
20454;SDS011;10386;54.314;10.022;2023-08-06T14:43:10;5.18;;;2.60;;
20454;SDS011;10386;54.314;10.022;2023-08-06T14:45:40;7.95;;;2.95;;
20454;SDS011;10386;54.314;10.022;2023-08-06T14:48:07;2.67;;;2.28;;